Terminal Aerodrome Forecast
Issued by NWS Midland/Odessa, TX

Home | Current Version | Previous Version | Text Only | Print | Product List | Glossary On
Versions: 1 2 3 4 5 6 7 8 9 10 11 12 13 14 15 16 17 18 19 20 21 22 23 24 25 26 27 28 29 30 31 32 33 34 35 36
898
FTUS44 KMAF 220801 AAB
TAFMAF
TAF AMD
KMAF 220801Z 2208/2306 04005KT 2SM BR OVC003
     FM221600 05009KT P6SM OVC004
     FM221900 21006KT P6SM FEW040 SCT250=

USA.gov is the U.S. government's official web portal to all federal, state and local government web resources and services.